sensor_id;sensor_type;location;lat;lon;timestamp;pressure;altitude;pressure_sealevel;temperature;humidity
17950;BME280;9100;48.700;9.316;2023-04-07T00:00:14;97781.8;;;8.3;100
17950;BME280;9100;48.700;9.316;2023-04-07T00:01:14;97784.6;;;8.28;100
17950;BME280;9100;48.700;9.316;2023-04-07T00:02:14;97782.1;;;8.27;100
17950;BME280;9100;48.700;9.316;2023-04-07T00:02:48;97784.1;;;8.25;100
17950;BME280;9100;48.700;9.316;2023-04-07T00:03:13;97782.3;;;8.25;100
17950;BME280;9100;48.700;9.316;2023-04-07T00:04:13;97779;;;8.25;100
17950;BME280;9100;48.700;9.316;2023-04-07T00:05:13;97788.4;;;8.24;100
17950;BME280;9100;48.700;9.316;2023-04-07T00:06:14;97784.1;;;8.25;100
17950;BME280;9100;48.700;9.316;2023-04-07T00:07:14;97778.3;;;8.23;100
17950;BME280;9100;48.700;9.316;2023-04-07T00:07:48;97780.1;;;8.22;100
17950;BME280;9100;48.700;9.316;2023-04-07T00:08:13;97777.5;;;8.22;100
17950;BME280;9100;48.700;9.316;2023-04-07T00:09:13;97777.5;;;8.22;100
17950;BME280;9100;48.700;9.316;2023-04-07T00:10:14;97777.70000000001;;;8.21;100
17950;BME280;9100;48.700;9.316;2023-04-07T00:11:14;97776.9;;;8.2;100
17950;BME280;9100;48.700;9.316;2023-04-07T00:12:14;97774.5;;;8.19;100
17950;BME280;9100;48.700;9.316;2023-04-07T00:12:49;97774.5;;;8.19;100
17950;BME280;9100;48.700;9.316;2023-04-07T00:13:14;97775.5;;;8.18;100
17950;BME280;9100;48.700;9.316;2023-04-07T00:14:13;97772.90000000001;;;8.18;100
17950;BME280;9100;48.700;9.316;2023-04-07T00:15:13;97772.90000000001;;;8.18;100
17950;BME280;9100;48.700;9.316;2023-04-07T00:16:13;97773.5;;;8.2;100
17950;BME280;9100;48.700;9.316;2023-04-07T00:17:13;97767.8;;;8.18;100
17950;BME280;9100;48.700;9.316;2023-04-07T00:17:48;97776.4;;;8.17;100
17950;BME280;9100;48.700;9.316;2023-04-07T00:18:13;97770.4;;;8.18;100
17950;BME280;9100;48.700;9.316;2023-04-07T00:19:13;97771.3;;;8.17;100
17950;BME280;9100;48.700;9.316;2023-04-07T00:20:13;97769.7;;;8.16;100
17950;BME280;9100;48.700;9.316;2023-04-07T00:21:13;97768.2;;;8.15;100
17950;BME280;9100;48.700;9.316;2023-04-07T00:22:13;97765.8;;;8.13;100
17950;BME280;9100;48.700;9.316;2023-04-07T00:22:48;97765.8;;;8.13;100
17950;BME280;9100;48.700;9.316;2023-04-07T00:23:13;97765.8;;;8.13;100
17950;BME280;9100;48.700;9.316;2023-04-07T00:24:13;97767.4;;;8.14;100
17950;BME280;9100;48.700;9.316;2023-04-07T00:25:14;97767.2;;;8.16;100
17950;BME280;9100;48.700;9.316;2023-04-07T00:26:13;97759.7;;;8.14;100
17950;BME280;9100;48.700;9.316;2023-04-07T00:27:14;97761.5;;;8.14;100
17950;BME280;9100;48.700;9.316;2023-04-07T00:27:48;97764;;;8.14;100
17950;BME280;9100;48.700;9.316;2023-04-07T00:28:14;97752.09999999999;;;8.14;100
17950;BME280;9100;48.700;9.316;2023-04-07T00:29:14;97759.5;;;8.16;100
17950;BME280;9100;48.700;9.316;2023-04-07T00:30:14;97763.7;;;8.17;100
17950;BME280;9100;48.700;9.316;2023-04-07T00:31:13;97752.70000000001;;;8.16;100
17950;BME280;9100;48.700;9.316;2023-04-07T00:32:13;97760.29999999999;;;8.16;100
17950;BME280;9100;48.700;9.316;2023-04-07T00:32:48;97749.40000000001;;;8.16;100
17950;BME280;9100;48.700;9.316;2023-04-07T00:33:13;97749.40000000001;;;8.16;100
17950;BME280;9100;48.700;9.316;2023-04-07T00:34:13;97748.6;;;8.15;100
17950;BME280;9100;48.700;9.316;2023-04-07T00:35:13;97751;;;8.17;100
17950;BME280;9100;48.700;9.316;2023-04-07T00:36:13;97750.2;;;8.16;100
17950;BME280;9100;48.700;9.316;2023-04-07T00:37:13;97750.5;;;8.13;100
17950;BME280;9100;48.700;9.316;2023-04-07T00:37:48;97744.6;;;8.13;100
17950;BME280;9100;48.700;9.316;2023-04-07T00:38:13;97746.2;;;8.14;100
17950;BME280;9100;48.700;9.316;2023-04-07T00:39:13;97750.5;;;8.13;100
17950;BME280;9100;48.700;9.316;2023-04-07T00:40:13;97746.2;;;8.14;100
17950;BME280;9100;48.700;9.316;2023-04-07T00:41:14;97748.7;;;8.14;100
17950;BME280;9100;48.700;9.316;2023-04-07T00:42:13;97747;;;8.14;100
17950;BME280;9100;48.700;9.316;2023-04-07T00:42:48;97747.1;;;8.13;100
17950;BME280;9100;48.700;9.316;2023-04-07T00:43:13;97746.2;;;8.14;100
17950;BME280;9100;48.700;9.316;2023-04-07T00:44:13;97747.79999999999;;;8.15;100
17950;BME280;9100;48.700;9.316;2023-04-07T00:45:14;97747.79999999999;;;8.15;100
17950;BME280;9100;48.700;9.316;2023-04-07T00:46:14;97737.59999999999;;;8.15;100
17950;BME280;9100;48.700;9.316;2023-04-07T00:47:14;97737.8;;;8.13;100
17950;BME280;9100;48.700;9.316;2023-04-07T00:47:48;97738.7;;;8.12;100
17950;BME280;9100;48.700;9.316;2023-04-07T00:48:13;97742;;;8.13;100
17950;BME280;9100;48.700;9.316;2023-04-07T00:49:14;97740.3;;;8.13;100
17950;BME280;9100;48.700;9.316;2023-04-07T00:50:13;97741.09999999999;;;8.14;100
17950;BME280;9100;48.700;9.316;2023-04-07T00:51:13;97735;;;8.15;100
17950;BME280;9100;48.700;9.316;2023-04-07T00:52:13;97736;;;8.14;100
17950;BME280;9100;48.700;9.316;2023-04-07T00:52:48;97720.9;;;8.12;100
17950;BME280;9100;48.700;9.316;2023-04-07T00:53:13;97721.7;;;8.13;100
17950;BME280;9100;48.700;9.316;2023-04-07T00:54:13;97726.59999999999;;;8.14;100
17950;BME280;9100;48.700;9.316;2023-04-07T00:55:13;97723.1;;;8.15;100
17950;BME280;9100;48.700;9.316;2023-04-07T00:56:14;97715.4;;;8.15;100
17950;BME280;9100;48.700;9.316;2023-04-07T00:57:13;97720.5;;;8.15;100
17950;BME280;9100;48.700;9.316;2023-04-07T00:57:48;97705.3;;;8.07;100
17950;BME280;9100;48.700;9.316;2023-04-07T00:58:14;97721.3;;;8.16;100
17950;BME280;9100;48.700;9.316;2023-04-07T00:59:14;97716.9;;;8.18;100
17950;BME280;9100;48.700;9.316;2023-04-07T01:00:14;97715.9;;;8.19;100
17950;BME280;9100;48.700;9.316;2023-04-07T01:01:14;97719.3;;;8.19;100
17950;BME280;9100;48.700;9.316;2023-04-07T01:02:15;97713.4;;;8.19;100
17950;BME280;9100;48.700;9.316;2023-04-07T01:02:51;97710.79999999999;;;8.19;100
17950;BME280;9100;48.700;9.316;2023-04-07T01:03:16;97712.40000000001;;;8.2;100
17950;BME280;9100;48.700;9.316;2023-04-07T01:04:16;97708.3;;;8.19;100
17950;BME280;9100;48.700;9.316;2023-04-07T01:05:14;97711.8;;;8.18;100
17950;BME280;9100;48.700;9.316;2023-04-07T01:06:14;97703.5;;;8.16;100
17950;BME280;9100;48.700;9.316;2023-04-07T01:07:14;97703.5;;;8.16;100
17950;BME280;9100;48.700;9.316;2023-04-07T01:07:51;97710.2;;;8.17;100
17950;BME280;9100;48.700;9.316;2023-04-07T01:08:15;97703.4;;;8.17;100
17950;BME280;9100;48.700;9.316;2023-04-07T01:09:16;97707.5;;;8.18;100
17950;BME280;9100;48.700;9.316;2023-04-07T01:10:15;97699.90000000001;;;8.18;100
17950;BME280;9100;48.700;9.316;2023-04-07T01:11:16;97702.4;;;8.18;100
17950;BME280;9100;48.700;9.316;2023-04-07T01:12:14;97673.29999999999;;;7.97;100
17950;BME280;9100;48.700;9.316;2023-04-07T01:12:50;97703.5;;;8.16;100
17950;BME280;9100;48.700;9.316;2023-04-07T01:13:16;97699.2;;;8.16;100
17950;BME280;9100;48.700;9.316;2023-04-07T01:14:14;97694.9;;;8.17;100
17950;BME280;9100;48.700;9.316;2023-04-07T01:15:14;97697.29999999999;;;8.18;100
17950;BME280;9100;48.700;9.316;2023-04-07T01:16:14;97699.1;;;8.18;100
17950;BME280;9100;48.700;9.316;2023-04-07T01:17:13;97696.5;;;8.18;100
17950;BME280;9100;48.700;9.316;2023-04-07T01:17:51;97697.29999999999;;;8.18;100
17950;BME280;9100;48.700;9.316;2023-04-07T01:18:14;97690.59999999999;;;8.17;100
17950;BME280;9100;48.700;9.316;2023-04-07T01:19:14;97697.90000000001;;;8.2;100
17950;BME280;9100;48.700;9.316;2023-04-07T01:20:15;97693.6;;;8.21;100
17950;BME280;9100;48.700;9.316;2023-04-07T01:21:13;97690.3;;;8.2;100
17950;BME280;9100;48.700;9.316;2023-04-07T01:22:14;97689.5;;;8.2;100
17950;BME280;9100;48.700;9.316;2023-04-07T01:22:49;97692.2;;;8.18;100
17950;BME280;9100;48.700;9.316;2023-04-07T01:23:16;97692.2;;;8.18;100
17950;BME280;9100;48.700;9.316;2023-04-07T01:24:19;97685.5;;;8.17;100
17950;BME280;9100;48.700;9.316;2023-04-07T01:25:18;97683.1;;;8.16;100
17950;BME280;9100;48.700;9.316;2023-04-07T01:26:16;97689;;;8.16;100
17950;BME280;9100;48.700;9.316;2023-04-07T01:27:17;97689;;;8.16;100
17950;BME280;9100;48.700;9.316;2023-04-07T01:27:53;97681.6;;;8.15;100
17950;BME280;9100;48.700;9.316;2023-04-07T01:28:14;97681.6;;;8.15;100
17950;BME280;9100;48.700;9.316;2023-04-07T01:29:30;97683.1;;;8.16;100
17950;BME280;9100;48.700;9.316;2023-04-07T01:30:14;97676.5;;;8.15;100
17950;BME280;9100;48.700;9.316;2023-04-07T01:31:14;97677.09999999999;;;8.17;100
17950;BME280;9100;48.700;9.316;2023-04-07T01:32:14;97679;;;8.15;100
17950;BME280;9100;48.700;9.316;2023-04-07T01:32:49;97679;;;8.15;100
17950;BME280;9100;48.700;9.316;2023-04-07T01:33:14;97676.5;;;8.15;100
17950;BME280;9100;48.700;9.316;2023-04-07T01:34:13;97679.2;;;8.13;100
17950;BME280;9100;48.700;9.316;2023-04-07T01:35:14;97676.8;;;8.12;100
17950;BME280;9100;48.700;9.316;2023-04-07T01:36:14;97676.8;;;8.12;100
17950;BME280;9100;48.700;9.316;2023-04-07T01:37:14;97678.7;;;8.1;100
17950;BME280;9100;48.700;9.316;2023-04-07T01:37:48;97671.1;;;8.1;100
17950;BME280;9100;48.700;9.316;2023-04-07T01:38:14;97675.40000000001;;;8.09;100
17950;BME280;9100;48.700;9.316;2023-04-07T01:39:14;97673.8;;;8.08;100
17950;BME280;9100;48.700;9.316;2023-04-07T01:40:13;97672.79999999999;;;8.09;100
17950;BME280;9100;48.700;9.316;2023-04-07T01:41:14;97674.59999999999;;;8.09;100
17950;BME280;9100;48.700;9.316;2023-04-07T01:42:14;97672.79999999999;;;8.09;100
17950;BME280;9100;48.700;9.316;2023-04-07T01:42:48;97668.5;;;8.1;100
17950;BME280;9100;48.700;9.316;2023-04-07T01:43:14;97674.40000000001;;;8.1;100
17950;BME280;9100;48.700;9.316;2023-04-07T01:44:13;97676.2;;;8.1;100
17950;BME280;9100;48.700;9.316;2023-04-07T01:45:13;97677.09999999999;;;8.09;100
17950;BME280;9100;48.700;9.316;2023-04-07T01:46:14;97673.90000000001;;;8.07;100
17950;BME280;9100;48.700;9.316;2023-04-07T01:47:14;97668.8;;;8.07;100
17950;BME280;9100;48.700;9.316;2023-04-07T01:47:48;97671.40000000001;;;8.07;100
17950;BME280;9100;48.700;9.316;2023-04-07T01:48:14;97671.5;;;8.05;100
17950;BME280;9100;48.700;9.316;2023-04-07T01:49:14;97664.70000000001;;;8.06;100
17950;BME280;9100;48.700;9.316;2023-04-07T01:50:13;97667.2;;;8.06;100
17950;BME280;9100;48.700;9.316;2023-04-07T01:51:13;97667.2;;;8.06;100
17950;BME280;9100;48.700;9.316;2023-04-07T01:52:14;97666.4;;;8.05;100
17950;BME280;9100;48.700;9.316;2023-04-07T01:52:48;97660.7;;;8.03;100
17950;BME280;9100;48.700;9.316;2023-04-07T01:53:13;97664.8;;;8.04;100
17950;BME280;9100;48.700;9.316;2023-04-07T01:54:13;97659.79999999999;;;8.04;100
17950;BME280;9100;48.700;9.316;2023-04-07T01:55:13;97660.40000000001;;;8.06;100
17950;BME280;9100;48.700;9.316;2023-04-07T01:56:13;97663.8;;;8.07;100
17950;BME280;9100;48.700;9.316;2023-04-07T01:57:13;97658;;;8.05;100
17950;BME280;9100;48.700;9.316;2023-04-07T01:57:48;97666.4;;;8.05;100
17950;BME280;9100;48.700;9.316;2023-04-07T01:58:14;97658;;;8.05;100
17950;BME280;9100;48.700;9.316;2023-04-07T01:59:14;97662.2;;;8.06;100
17950;BME280;9100;48.700;9.316;2023-04-07T02:00:14;97659.6;;;8.06;100
17950;BME280;9100;48.700;9.316;2023-04-07T02:01:14;97663.8;;;8.07;100
17950;BME280;9100;48.700;9.316;2023-04-07T02:02:14;97658.7;;;8.07;100
17950;BME280;9100;48.700;9.316;2023-04-07T02:02:50;97663.8;;;8.07;100
17950;BME280;9100;48.700;9.316;2023-04-07T02:03:14;97657.9;;;8.06;100
17950;BME280;9100;48.700;9.316;2023-04-07T02:04:15;97659.6;;;8.06;100
17950;BME280;9100;48.700;9.316;2023-04-07T02:05:15;97655.5;;;8.05;100
17950;BME280;9100;48.700;9.316;2023-04-07T02:06:19;97655.5;;;8.05;100
17950;BME280;9100;48.700;9.316;2023-04-07T02:07:13;97660.6;;;8.05;100
17950;BME280;9100;48.700;9.316;2023-04-07T02:07:50;97661.5;;;8.04;100
17950;BME280;9100;48.700;9.316;2023-04-07T02:08:14;97660.6;;;8.05;100
17950;BME280;9100;48.700;9.316;2023-04-07T02:09:14;97650.40000000001;;;8.05;100
17950;BME280;9100;48.700;9.316;2023-04-07T02:10:14;97654.5;;;8.06;100
17950;BME280;9100;48.700;9.316;2023-04-07T02:11:13;97655.3;;;8.06;100
17950;BME280;9100;48.700;9.316;2023-04-07T02:12:13;97654.5;;;8.06;100
17950;BME280;9100;48.700;9.316;2023-04-07T02:12:48;97656.3;;;8.05;100
17950;BME280;9100;48.700;9.316;2023-04-07T02:13:14;97652;;;8.06;100
17950;BME280;9100;48.700;9.316;2023-04-07T02:14:13;97654.4;;;8.07;100
17950;BME280;9100;48.700;9.316;2023-04-07T02:15:14;97653.59999999999;;;8.07;100
17950;BME280;9100;48.700;9.316;2023-04-07T02:16:14;97648.5;;;8.07;100
17950;BME280;9100;48.700;9.316;2023-04-07T02:17:14;97655.9;;;8.08;100
17950;BME280;9100;48.700;9.316;2023-04-07T02:17:50;97645.9;;;8.07;100
17950;BME280;9100;48.700;9.316;2023-04-07T02:18:14;97649.3;;;8.07;100
17950;BME280;9100;48.700;9.316;2023-04-07T02:19:14;97652.8;;;8.06;100
17950;BME280;9100;48.700;9.316;2023-04-07T02:20:13;97652;;;8.06;100
17950;BME280;9100;48.700;9.316;2023-04-07T02:21:14;97650.40000000001;;;8.05;100
17950;BME280;9100;48.700;9.316;2023-04-07T02:22:13;97650.40000000001;;;8.05;100
17950;BME280;9100;48.700;9.316;2023-04-07T02:22:48;97652.9;;;8.05;100
17950;BME280;9100;48.700;9.316;2023-04-07T02:23:13;97652;;;8.06;100
17950;BME280;9100;48.700;9.316;2023-04-07T02:24:17;97649.40000000001;;;8.06;100
17950;BME280;9100;48.700;9.316;2023-04-07T02:25:21;97652;;;8.06;100
17950;BME280;9100;48.700;9.316;2023-04-07T02:26:14;97649.40000000001;;;8.06;100
17950;BME280;9100;48.700;9.316;2023-04-07T02:27:14;97648.5;;;8.07;100
17950;BME280;9100;48.700;9.316;2023-04-07T02:27:48;97645.1;;;8.06;100
17950;BME280;9100;48.700;9.316;2023-04-07T02:28:14;97646.90000000001;;;8.06;100
17950;BME280;9100;48.700;9.316;2023-04-07T02:29:14;97644.2;;;8.07;100
17950;BME280;9100;48.700;9.316;2023-04-07T02:30:14;97645.1;;;8.06;100
17950;BME280;9100;48.700;9.316;2023-04-07T02:31:14;97643.4;;;8.07;100
17950;BME280;9100;48.700;9.316;2023-04-07T02:32:14;97639.9;;;8.08;100
17950;BME280;9100;48.700;9.316;2023-04-07T02:32:49;97646.90000000001;;;8.06;100
17950;BME280;9100;48.700;9.316;2023-04-07T02:33:14;97638.4;;;8.05;100
17950;BME280;9100;48.700;9.316;2023-04-07T02:34:14;97644.9;;;8.08;100
17950;BME280;9100;48.700;9.316;2023-04-07T02:35:14;97645.8;;;8.08;100
17950;BME280;9100;48.700;9.316;2023-04-07T02:36:14;97633.8;;;8.09;100
17950;BME280;9100;48.700;9.316;2023-04-07T02:37:13;97641.5;;;8.09;100
17950;BME280;9100;48.700;9.316;2023-04-07T02:37:48;97628.9;;;8.07;100
17950;BME280;9100;48.700;9.316;2023-04-07T02:38:13;97641.5;;;8.09;100
17950;BME280;9100;48.700;9.316;2023-04-07T02:39:13;97640.7;;;8.08;100
17950;BME280;9100;48.700;9.316;2023-04-07T02:40:13;97635.40000000001;;;8.1;100
17950;BME280;9100;48.700;9.316;2023-04-07T02:41:13;97630.3;;;8.1;100
17950;BME280;9100;48.700;9.316;2023-04-07T02:42:14;97626;;;8.1;100
17950;BME280;9100;48.700;9.316;2023-04-07T02:42:48;97635.40000000001;;;8.1;100
17950;BME280;9100;48.700;9.316;2023-04-07T02:43:14;97627.8;;;8.1;100
17950;BME280;9100;48.700;9.316;2023-04-07T02:44:13;97632.1;;;8.09;100
17950;BME280;9100;48.700;9.316;2023-04-07T02:45:13;97630.1;;;8.11;100
17950;BME280;9100;48.700;9.316;2023-04-07T02:46:13;97630.9;;;8.12;100
17950;BME280;9100;48.700;9.316;2023-04-07T02:47:13;97625;;;8.11;100
17950;BME280;9100;48.700;9.316;2023-04-07T02:47:48;97630.9;;;8.12;100
17950;BME280;9100;48.700;9.316;2023-04-07T02:48:14;97623.5;;;8.1;100
17950;BME280;9100;48.700;9.316;2023-04-07T02:49:14;97623.29999999999;;;8.12;100
17950;BME280;9100;48.700;9.316;2023-04-07T02:50:14;97628.2;;;8.13;100
17950;BME280;9100;48.700;9.316;2023-04-07T02:51:14;97625.8;;;8.12;100
17950;BME280;9100;48.700;9.316;2023-04-07T02:52:14;97623.29999999999;;;8.12;100
17950;BME280;9100;48.700;9.316;2023-04-07T02:52:48;97624.3;;;8.11;100
17950;BME280;9100;48.700;9.316;2023-04-07T02:53:14;97624.90000000001;;;8.13;100
17950;BME280;9100;48.700;9.316;2023-04-07T02:54:14;97625;;;8.11;100
17950;BME280;9100;48.700;9.316;2023-04-07T02:55:13;97621.5;;;8.12;100
17950;BME280;9100;48.700;9.316;2023-04-07T02:56:14;97622.29999999999;;;8.13;100
17950;BME280;9100;48.700;9.316;2023-04-07T02:57:13;97624.90000000001;;;8.13;100
17950;BME280;9100;48.700;9.316;2023-04-07T02:57:48;97620;;;8.11;100
17950;BME280;9100;48.700;9.316;2023-04-07T02:58:13;97619.2;;;8.11;100
17950;BME280;9100;48.700;9.316;2023-04-07T02:59:13;97618.4;;;8.1;100
17950;BME280;9100;48.700;9.316;2023-04-07T03:00:14;97620.3;;;8.08;100
17950;BME280;9100;48.700;9.316;2023-04-07T03:01:14;97624.59999999999;;;8.08;100
17950;BME280;9100;48.700;9.316;2023-04-07T03:02:14;97618.2;;;8.04;100
17950;BME280;9100;48.700;9.316;2023-04-07T03:02:49;97618.2;;;8.04;100
17950;BME280;9100;48.700;9.316;2023-04-07T03:03:13;97613.9;;;8.04;100
17950;BME280;9100;48.700;9.316;2023-04-07T03:04:13;97618.2;;;8.04;100
17950;BME280;9100;48.700;9.316;2023-04-07T03:05:14;97607.1;;;8.05;100
17950;BME280;9100;48.700;9.316;2023-04-07T03:06:14;97613.2;;;8.04;100
17950;BME280;9100;48.700;9.316;2023-04-07T03:07:14;97613.9;;;8.04;100
17950;BME280;9100;48.700;9.316;2023-04-07T03:07:48;97613.2;;;8.04;100
17950;BME280;9100;48.700;9.316;2023-04-07T03:08:14;97609.6;;;8.05;100
17950;BME280;9100;48.700;9.316;2023-04-07T03:09:14;97605.3;;;8.05;100
17950;BME280;9100;48.700;9.316;2023-04-07T03:10:13;97609.5;;;8.06;100
17950;BME280;9100;48.700;9.316;2023-04-07T03:11:13;97606.1;;;8.06;100
17950;BME280;9100;48.700;9.316;2023-04-07T03:12:14;97603;;;8.04;100
17950;BME280;9100;48.700;9.316;2023-04-07T03:12:48;97608.1;;;8.04;100
17950;BME280;9100;48.700;9.316;2023-04-07T03:13:14;97604.7;;;8.03;100
17950;BME280;9100;48.700;9.316;2023-04-07T03:14:14;97603.7;;;8.04;100
17950;BME280;9100;48.700;9.316;2023-04-07T03:15:14;97599.40000000001;;;8.05;100
17950;BME280;9100;48.700;9.316;2023-04-07T03:16:14;97597.90000000001;;;8.04;100
17950;BME280;9100;48.700;9.316;2023-04-07T03:17:13;97598.5;;;8.06;100
17950;BME280;9100;48.700;9.316;2023-04-07T03:17:48;97595.3;;;8.04;100
17950;BME280;9100;48.700;9.316;2023-04-07T03:18:13;97599.40000000001;;;8.05;100
17950;BME280;9100;48.700;9.316;2023-04-07T03:19:13;97600.3;;;8.05;100
17950;BME280;9100;48.700;9.316;2023-04-07T03:20:14;97596.1;;;8.04;100
17950;BME280;9100;48.700;9.316;2023-04-07T03:21:14;97601.8;;;8.06;100
17950;BME280;9100;48.700;9.316;2023-04-07T03:22:13;97601.8;;;8.06;100
17950;BME280;9100;48.700;9.316;2023-04-07T03:22:48;97603;;;8.04;100
17950;BME280;9100;48.700;9.316;2023-04-07T03:23:14;97596;;;8.06;100
17950;BME280;9100;48.700;9.316;2023-04-07T03:24:13;97603.4;;;8.07;100
17950;BME280;9100;48.700;9.316;2023-04-07T03:25:13;97596.8;;;8.06;100
17950;BME280;9100;48.700;9.316;2023-04-07T03:26:13;97596;;;8.06;100
17950;BME280;9100;48.700;9.316;2023-04-07T03:27:14;97597.7;;;8.05;100
17950;BME280;9100;48.700;9.316;2023-04-07T03:27:48;97594.4;;;8.05;100
17950;BME280;9100;48.700;9.316;2023-04-07T03:28:14;97590.9;;;8.06;100
17950;BME280;9100;48.700;9.316;2023-04-07T03:29:14;97589;;;8;100
17950;BME280;9100;48.700;9.316;2023-04-07T03:30:14;97595.6;;;8.09;100
17950;BME280;9100;48.700;9.316;2023-04-07T03:31:14;97599.8;;;8.1;100
17950;BME280;9100;48.700;9.316;2023-04-07T03:32:14;97592.1;;;8.1;100
17950;BME280;9100;48.700;9.316;2023-04-07T03:32:48;97604.1;;;8.09;100
17950;BME280;9100;48.700;9.316;2023-04-07T03:33:14;97592.1;;;8.1;100
17950;BME280;9100;48.700;9.316;2023-04-07T03:34:14;97586.1;;;8.11;100
17950;BME280;9100;48.700;9.316;2023-04-07T03:35:13;97590.20000000001;;;8.12;100
17950;BME280;9100;48.700;9.316;2023-04-07T03:36:13;97590.20000000001;;;8.12;100
17950;BME280;9100;48.700;9.316;2023-04-07T03:37:14;97595.3;;;8.12;100
17950;BME280;9100;48.700;9.316;2023-04-07T03:37:48;97598.8;;;8.11;100
17950;BME280;9100;48.700;9.316;2023-04-07T03:38:14;97592.6;;;8.13;100
17950;BME280;9100;48.700;9.316;2023-04-07T03:39:14;97601;;;8.14;100
17950;BME280;9100;48.700;9.316;2023-04-07T03:40:14;97599.3;;;8.14;100
17950;BME280;9100;48.700;9.316;2023-04-07T03:41:14;97598.1;;;8.17;100
17950;BME280;9100;48.700;9.316;2023-04-07T03:42:14;97595.8;;;8.15;100
17950;BME280;9100;48.700;9.316;2023-04-07T03:42:48;97602.4;;;8.16;100
17950;BME280;9100;48.700;9.316;2023-04-07T03:43:14;97591.5;;;8.16;100
17950;BME280;9100;48.700;9.316;2023-04-07T03:44:14;97593;;;8.17;100
17950;BME280;9100;48.700;9.316;2023-04-07T03:45:14;97593.8;;;8.17;100
17950;BME280;9100;48.700;9.316;2023-04-07T03:46:14;97591.09999999999;;;8.19;100
17950;BME280;9100;48.700;9.316;2023-04-07T03:47:14;97584.5;;;8.18;100
17950;BME280;9100;48.700;9.316;2023-04-07T03:47:48;97588.59999999999;;;8.19;100
17950;BME280;9100;48.700;9.316;2023-04-07T03:48:14;97591.09999999999;;;8.19;100
17950;BME280;9100;48.700;9.316;2023-04-07T03:49:14;97588.59999999999;;;8.19;100
17950;BME280;9100;48.700;9.316;2023-04-07T03:50:14;97594.6;;;8.18;100
17950;BME280;9100;48.700;9.316;2023-04-07T03:51:14;97598.1;;;8.17;100
17950;BME280;9100;48.700;9.316;2023-04-07T03:52:14;97590.7;;;8.15;100
17950;BME280;9100;48.700;9.316;2023-04-07T03:52:48;97592.2;;;8.16;100
17950;BME280;9100;48.700;9.316;2023-04-07T03:53:14;97594.6;;;8.18;100
17950;BME280;9100;48.700;9.316;2023-04-07T03:54:14;97593;;;8.17;100
17950;BME280;9100;48.700;9.316;2023-04-07T03:55:14;97591.09999999999;;;8.19;100
17950;BME280;9100;48.700;9.316;2023-04-07T03:56:14;97585.2;;;8.18;100
17950;BME280;9100;48.700;9.316;2023-04-07T03:57:14;97588.59999999999;;;8.19;100
17950;BME280;9100;48.700;9.316;2023-04-07T03:57:48;97586.8;;;8.19;100
17950;BME280;9100;48.700;9.316;2023-04-07T03:58:14;97587.59999999999;;;8.2;100
17950;BME280;9100;48.700;9.316;2023-04-07T03:59:14;97585.7;;;8.22;100
17950;BME280;9100;48.700;9.316;2023-04-07T04:00:14;97580.6;;;8.22;100
17950;BME280;9100;48.700;9.316;2023-04-07T04:01:14;97587.3;;;8.23;100
17950;BME280;9100;48.700;9.316;2023-04-07T04:02:14;97587.3;;;8.23;100
17950;BME280;9100;48.700;9.316;2023-04-07T04:02:48;97582.2;;;8.23;100
17950;BME280;9100;48.700;9.316;2023-04-07T04:03:13;97581.4;;;8.22;100
17950;BME280;9100;48.700;9.316;2023-04-07T04:04:14;97577.09999999999;;;8.23;100
17950;BME280;9100;48.700;9.316;2023-04-07T04:05:14;97587.3;;;8.23;100
17950;BME280;9100;48.700;9.316;2023-04-07T04:06:14;97594;;;8.24;100
17950;BME280;9100;48.700;9.316;2023-04-07T04:07:14;97582.2;;;8.23;100
17950;BME280;9100;48.700;9.316;2023-04-07T04:07:48;97583.8;;;8.24;100
17950;BME280;9100;48.700;9.316;2023-04-07T04:08:14;97588.09999999999;;;8.23;100
17950;BME280;9100;48.700;9.316;2023-04-07T04:09:13;97584.6;;;8.24;100
17950;BME280;9100;48.700;9.316;2023-04-07T04:10:14;97583;;;8.23;100
17950;BME280;9100;48.700;9.316;2023-04-07T04:11:14;97588.09999999999;;;8.23;100
17950;BME280;9100;48.700;9.316;2023-04-07T04:12:14;97584.7;;;8.23;100
17950;BME280;9100;48.700;9.316;2023-04-07T04:12:48;97581.4;;;8.22;100
17950;BME280;9100;48.700;9.316;2023-04-07T04:13:13;97584.7;;;8.23;100
17950;BME280;9100;48.700;9.316;2023-04-07T04:14:14;97579.6;;;8.23;100
17950;BME280;9100;48.700;9.316;2023-04-07T04:15:14;97583.8;;;8.24;100
17950;BME280;9100;48.700;9.316;2023-04-07T04:16:14;97571;;;8.24;100
17950;BME280;9100;48.700;9.316;2023-04-07T04:17:14;97582.2;;;8.23;100
17950;BME280;9100;48.700;9.316;2023-04-07T04:17:48;97576.3;;;8.22;100
17950;BME280;9100;48.700;9.316;2023-04-07T04:18:14;97575.3;;;8.23;100
17950;BME280;9100;48.700;9.316;2023-04-07T04:19:14;97583;;;8.23;100
17950;BME280;9100;48.700;9.316;2023-04-07T04:20:14;97577.09999999999;;;8.23;100
17950;BME280;9100;48.700;9.316;2023-04-07T04:21:14;97577.4;;;8.2;100
17950;BME280;9100;48.700;9.316;2023-04-07T04:22:14;97578.09999999999;;;8.22;100
17950;BME280;9100;48.700;9.316;2023-04-07T04:22:48;97579;;;8.21;100
17950;BME280;9100;48.700;9.316;2023-04-07T04:23:14;97573.90000000001;;;8.21;100
17950;BME280;9100;48.700;9.316;2023-04-07T04:24:14;97579;;;8.21;100
17950;BME280;9100;48.700;9.316;2023-04-07T04:25:15;97577.3;;;8.21;100
17950;BME280;9100;48.700;9.316;2023-04-07T04:26:14;97580;;;8.2;100
17950;BME280;9100;48.700;9.316;2023-04-07T04:27:14;97580;;;8.2;100
17950;BME280;9100;48.700;9.316;2023-04-07T04:27:48;97575.8;;;8.19;100
17950;BME280;9100;48.700;9.316;2023-04-07T04:28:14;97575.8;;;8.19;100
17950;BME280;9100;48.700;9.316;2023-04-07T04:29:14;97569.2;;;8.18;100
17950;BME280;9100;48.700;9.316;2023-04-07T04:30:14;97576.59999999999;;;8.19;100
17950;BME280;9100;48.700;9.316;2023-04-07T04:31:14;97568.4;;;8.17;100
17950;BME280;9100;48.700;9.316;2023-04-07T04:32:14;97568.4;;;8.17;100
17950;BME280;9100;48.700;9.316;2023-04-07T04:32:48;97579.4;;;8.18;100
17950;BME280;9100;48.700;9.316;2023-04-07T04:33:14;97574.3;;;8.18;100
17950;BME280;9100;48.700;9.316;2023-04-07T04:34:14;97570;;;8.18;100
17950;BME280;9100;48.700;9.316;2023-04-07T04:35:14;97570.7;;;8.19;100
17950;BME280;9100;48.700;9.316;2023-04-07T04:36:14;97575.8;;;8.19;100
17950;BME280;9100;48.700;9.316;2023-04-07T04:37:14;97575.8;;;8.19;100